Time;durP1;ratioP1;P1;durP2;ratioP2;P2;SDS_P1;SDS_P2;PMS_P1;PMS_P2;Temp;Humidity;BMP_temperature;BMP_pressure;BME280_temperature;BME280_humidity;BME280_pressure;Samples;Min_cycle;Max_cycle;Signal;HPM_P1;HPM_P2
2023/12/14 00:00:16;;;;;;;6.50;5.88;;;;;;;12.41;47.99;96462.25;10373570;28;20442;-50
2023/12/14 00:05:15;;;;;;;7.38;6.68;;;;;;;12.45;47.67;96452.59;10373827;28;20580;-50
2023/12/14 00:10:14;;;;;;;7.40;6.45;;;;;;;12.34;48.17;96458.13;10373443;28;20112;-50
2023/12/14 00:15:13;;;;;;;6.13;5.63;;;;;;;12.54;47.94;96490.53;10373598;28;20535;-49
2023/12/14 00:20:12;;;;;;;6.32;5.82;;;;;;;12.54;47.92;96480.97;10373260;28;20504;-49
2023/12/14 00:25:11;;;;;;;6.53;5.60;;;;;;;12.57;47.92;96499.06;10372922;28;20067;-50
2023/12/14 00:30:10;;;;;;;6.75;6.00;;;;;;;11.87;47.64;96370.13;10372553;28;20036;-50
2023/12/14 00:35:09;;;;;;;5.95;5.45;;;;;;;11.71;48.01;96329.03;10372815;28;20060;-50
2023/12/14 00:40:08;;;;;;;6.65;6.05;;;;;;;12.23;47.94;96442.81;10372267;28;20029;-50
2023/12/14 00:45:08;;;;;;;7.88;7.13;;;;;;;12.53;48.01;96484.44;10372219;28;20068;-51
2023/12/14 00:50:07;;;;;;;6.32;5.68;;;;;;;12.49;47.98;96488.06;10371796;28;20490;-49
2023/12/14 00:55:06;;;;;;;7.63;6.60;;;;;;;11.43;48.30;96328.06;10371584;28;20586;-50
2023/12/14 01:00:06;;;;;;;7.72;7.03;;;;;;;12.37;48.06;96473.66;10371664;28;20608;-49
2023/12/14 01:05:05;;;;;;;6.90;5.88;;;;;;;12.49;47.94;96475.03;10369537;28;20073;-50
2023/12/14 01:10:04;;;;;;;;;;;;;;;12.64;47.90;96504.97;10370609;28;20083;-50
2023/12/14 01:15:04;;;;;;;6.30;5.78;;;;;;;12.61;47.98;96484.25;10369722;28;19958;-49
2023/12/14 01:20:07;;;;;;;7.15;6.45;;;;;;;12.51;47.46;96458.50;10370751;28;20061;-49
2023/12/14 01:25:07;;;;;;;6.78;6.15;;;;;;;12.06;47.47;96395.59;10371064;28;20091;-50
2023/12/14 01:30:06;;;;;;;6.82;6.22;;;;;;;12.64;47.29;96486.75;10370399;28;20075;-50
2023/12/14 01:35:05;;;;;;;7.35;6.60;;;;;;;12.54;46.79;96435.88;10369860;28;20500;-50
2023/12/14 01:40:06;;;;;;;6.60;5.95;;;;;;;12.86;46.79;96479.13;10369955;28;20068;-50
2023/12/14 01:45:05;;;;;;;8.10;6.47;;;;;;;12.64;46.79;96442.50;10369826;28;20155;-49
2023/12/14 01:50:05;;;;;;;6.75;6.25;;;;;;;12.72;46.78;96423.16;10369357;28;20615;-49
2023/12/14 01:55:04;;;;;;;;;;;;;;;12.98;46.63;96468.38;10385085;28;20068;-50
2023/12/14 02:00:03;;;;;;;7.15;6.60;;;;;;;12.93;46.37;96454.63;10369375;28;19943;-51
2023/12/14 02:05:02;;;;;;;;;;;;;;;12.94;46.74;96445.91;10368796;28;20052;-51
2023/12/14 02:10:01;;;;;;;6.57;5.73;;;;;;;12.76;46.64;96433.47;10368138;28;20425;-50
2023/12/14 02:15:00;;;;;;;7.32;6.40;;;;;;;12.71;46.79;96455.28;10368690;28;20417;-49
2023/12/14 02:20:00;;;;;;;6.00;5.50;;;;;;;12.54;47.16;96447.13;10368529;28;20067;-51
2023/12/14 02:24:59;;;;;;;6.90;6.30;;;;;;;12.47;47.19;96430.00;10368740;28;20476;-50
2023/12/14 02:29:58;;;;;;;7.03;6.43;;;;;;;12.25;47.30;96386.38;10368229;28;20108;-49
2023/12/14 02:34:57;;;;;;;7.88;6.07;;;;;;;12.22;47.69;96409.88;10368223;28;20068;-50
2023/12/14 02:39:56;;;;;;;7.22;6.45;;;;;;;12.40;47.35;96428.47;10368276;28;20033;-49
2023/12/14 02:44:56;;;;;;;6.18;5.68;;;;;;;12.42;47.44;96429.28;10367411;28;20040;-50
2023/12/14 02:49:55;;;;;;;7.00;6.40;;;;;;;12.28;47.31;96407.13;10366071;28;20064;-50
2023/12/14 02:54:54;;;;;;;7.93;7.22;;;;;;;12.37;47.23;96424.22;10366560;28;20071;-51
2023/12/14 02:59:53;;;;;;;7.10;6.40;;;;;;;12.03;47.18;96341.94;10367721;28;20124;-51
2023/12/14 03:04:52;;;;;;;6.97;6.38;;;;;;;12.29;47.54;96395.81;10367191;28;20125;-49
2023/12/14 03:09:51;;;;;;;8.38;6.38;;;;;;;12.33;47.37;96406.16;10366658;28;20055;-49
2023/12/14 03:14:50;;;;;;;8.18;6.55;;;;;;;12.15;47.42;96397.09;10372412;28;20119;-49
2023/12/14 03:19:49;;;;;;;7.45;6.75;;;;;;;12.16;47.50;96391.84;10375868;28;20073;-49
2023/12/14 03:24:48;;;;;;;8.85;7.22;;;;;;;11.67;49.87;96403.63;10375054;28;20123;-49
2023/12/14 03:29:47;;;;;;;9.88;7.88;;;;;;;11.15;50.84;96360.84;10375861;28;20029;-49
2023/12/14 03:34:46;;;;;;;9.00;7.78;;;;;;;11.22;51.77;96420.38;10374509;28;20121;-49
2023/12/14 03:39:44;;;;;;;9.77;7.10;;;;;;;10.83;51.56;96404.84;10375222;28;20124;-49
2023/12/14 03:44:43;;;;;;;11.02;8.20;;;;;;;10.68;52.66;96401.75;10374525;28;20061;-50
2023/12/14 03:49:42;;;;;;;9.93;7.80;;;;;;;10.45;52.88;96408.31;10373295;28;20127;-49
2023/12/14 03:54:41;;;;;;;9.45;8.10;;;;;;;10.33;53.48;96390.41;10374504;28;20471;-50
2023/12/14 03:59:40;;;;;;;8.05;7.22;;;;;;;10.13;53.46;96399.50;10374589;28;20021;-49
2023/12/14 04:04:40;;;;;;;8.82;7.03;;;;;;;10.28;54.00;96439.78;10373718;28;20816;-49
2023/12/14 04:09:39;;;;;;;8.38;7.43;;;;;;;10.06;53.83;96412.63;10373909;28;20112;-50
2023/12/14 04:14:37;;;;;;;9.18;7.55;;;;;;;10.11;54.72;96436.69;10373163;28;20024;-51
2023/12/14 04:19:38;;;;;;;9.82;7.60;;;;;;;10.17;55.09;96454.72;10373577;28;20491;-51
2023/12/14 04:24:37;;;;;;;15.13;9.30;;;;;;;10.12;55.22;96444.44;10371892;28;20063;-49
2023/12/14 04:29:36;;;;;;;11.60;7.90;;;;;;;10.06;55.03;96460.13;10373030;28;20021;-49
2023/12/14 04:34:36;;;;;;;44.70;29.05;;;;;;;10.15;55.14;96459.09;10371927;28;20025;-49
2023/12/14 04:39:34;;;;;;;;;;;;;;;10.19;55.58;96460.72;10370648;28;20055;-49
2023/12/14 04:44:33;;;;;;;11.65;8.65;;;;;;;10.04;55.42;96437.72;10371996;28;19909;-49
2023/12/14 04:49:32;;;;;;;6.95;6.35;;;;;;;10.06;54.72;96441.97;10372511;28;20411;-49
2023/12/14 04:54:31;;;;;;;7.93;5.85;;;;;;;10.24;54.30;96437.28;10372028;28;20024;-49
2023/12/14 04:59:30;;;;;;;;;;;;;;;10.61;53.40;96447.72;10372791;28;20051;-49
2023/12/14 05:04:29;;;;;;;7.25;6.65;;;;;;;10.45;52.81;96400.53;10371365;28;19913;-51
2023/12/14 05:09:28;;;;;;;11.55;7.25;;;;;;;10.92;51.93;96441.91;10371590;28;20124;-50
2023/12/14 05:14:29;;;;;;;9.75;8.75;;;;;;;10.57;51.90;96382.09;10371126;28;20032;-50
2023/12/14 05:19:28;;;;;;;17.90;14.65;;;;;;;10.77;53.45;96433.50;10370852;28;20056;-50
2023/12/14 05:24:27;;;;;;;16.83;11.90;;;;;;;10.83;53.34;96454.16;10370703;28;20115;-49
2023/12/14 05:29:26;;;;;;;24.40;14.77;;;;;;;10.45;53.75;96439.44;10370745;28;20116;-49
2023/12/14 05:34:25;;;;;;;21.88;14.50;;;;;;;10.44;53.97;96449.84;10369905;28;20029;-50
2023/12/14 05:39:24;;;;;;;26.50;15.75;;;;;;;9.94;54.75;96393.00;10369873;28;20025;-50
2023/12/14 05:44:22;;;;;;;22.83;14.80;;;;;;;10.13;55.72;96479.84;10369836;28;20100;-51
2023/12/14 05:49:22;;;;;;;22.30;14.65;;;;;;;9.89;56.05;96486.38;10368902;28;20037;-49
2023/12/14 05:54:20;;;;;;;;;;;;;;;9.88;55.91;96507.09;10369793;28;20746;-49
2023/12/14 05:59:19;;;;;;;24.25;15.43;;;;;;;9.37;56.24;96421.69;10369842;28;19952;-48
2023/12/14 06:04:19;;;;;;;32.78;17.75;;;;;;;9.86;56.24;96521.81;10368102;28;20036;-49
2023/12/14 06:09:21;;;;;;;;;;;;;;;9.90;56.02;96532.09;10369137;28;20120;-49
2023/12/14 06:14:20;;;;;;;15.77;10.10;;;;;;;9.67;56.14;96487.63;10368754;28;19960;-49
2023/12/14 06:19:19;;;;;;;14.82;8.82;;;;;;;8.90;55.86;96394.00;10368691;28;20045;-49
2023/12/14 06:24:18;;;;;;;13.27;10.05;;;;;;;9.91;55.70;96583.06;10367156;28;20045;-48
2023/12/14 06:29:17;;;;;;;20.77;14.32;;;;;;;9.57;56.11;96538.72;10365183;28;20727;-50
2023/12/14 06:34:16;;;;;;;34.05;22.10;;;;;;;8.97;56.26;96436.13;10366648;28;20032;-49
2023/12/14 06:39:16;;;;;;;32.97;23.33;;;;;;;9.99;55.92;96575.16;10367260;28;20049;-49
2023/12/14 06:44:15;;;;;;;37.05;22.70;;;;;;;10.16;55.77;96644.84;10367024;28;20048;-49
2023/12/14 06:49:14;;;;;;;24.25;15.98;;;;;;;9.99;55.53;96647.72;10365889;28;20036;-49
2023/12/14 06:54:13;;;;;;;20.92;16.00;;;;;;;9.91;55.96;96621.94;10365794;28;20159;-50
2023/12/14 06:59:12;;;;;;;23.60;15.52;;;;;;;9.89;56.78;96665.16;10364114;28;20108;-49
2023/12/14 07:04:10;;;;;;;19.85;13.93;;;;;;;9.73;55.92;96620.50;10363946;28;20055;-52
2023/12/14 07:09:09;;;;;;;17.58;13.07;;;;;;;10.10;55.94;96666.53;10365946;28;20037;-50
2023/12/14 07:14:08;;;;;;;23.33;15.23;;;;;;;10.61;56.00;96697.66;10366307;28;20124;-50
2023/12/14 07:19:07;;;;;;;24.92;15.07;;;;;;;10.81;55.62;96706.78;10366701;28;20461;-50
2023/12/14 07:24:06;;;;;;;20.08;14.48;;;;;;;11.11;55.71;96738.28;10364087;28;20210;-51
2023/12/14 07:29:05;;;;;;;25.48;14.52;;;;;;;10.94;55.35;96692.72;10365350;28;20112;-50
2023/12/14 07:34:04;;;;;;;29.17;17.60;;;;;;;10.97;54.88;96691.81;10364392;28;20108;-49
2023/12/14 07:39:03;;;;;;;41.33;22.33;;;;;;;11.07;54.87;96741.81;10365695;28;20115;-49
2023/12/14 07:44:02;;;;;;;18.48;14.50;;;;;;;11.48;56.30;96799.88;10366326;28;20033;-51
2023/12/14 07:49:01;;;;;;;;;;;;;;;11.51;57.69;96779.88;10366206;28;20108;-49
2023/12/14 07:54:00;;;;;;;21.50;15.90;;;;;;;11.10;58.08;96720.97;10366292;28;19919;-50
2023/12/14 07:58:59;;;;;;;18.35;14.65;;;;;;;11.60;58.18;96792.69;10365860;28;20043;-49
2023/12/14 08:03:58;;;;;;;24.33;19.80;;;;;;;11.59;58.76;96771.94;10372711;28;20040;-49
2023/12/14 08:08:57;;;;;;;17.45;13.63;;;;;;;11.77;58.70;96814.88;10373383;28;20027;-49
2023/12/14 08:13:56;;;;;;;15.65;13.10;;;;;;;11.94;58.71;96815.38;10371240;28;20129;-49
2023/12/14 08:18:55;;;;;;;15.18;11.38;;;;;;;12.12;58.57;96834.94;10372347;28;20116;-49
2023/12/14 08:23:54;;;;;;;11.80;10.10;;;;;;;11.99;58.68;96817.88;10372745;28;20057;-49
2023/12/14 08:28:53;;;;;;;13.52;8.80;;;;;;;11.83;59.09;96796.53;10372739;28;20560;-49
2023/12/14 08:33:52;;;;;;;10.38;9.18;;;;;;;11.98;58.88;96827.41;10372813;28;20773;-49
2023/12/14 08:38:51;;;;;;;14.32;7.40;;;;;;;12.34;58.70;96866.53;10372115;28;20064;-50
2023/12/14 08:43:50;;;;;;;8.27;7.20;;;;;;;11.34;59.17;96712.69;10371893;28;20112;-49
2023/12/14 08:48:49;;;;;;;7.10;6.47;;;;;;;11.89;59.16;96818.06;10372027;28;20174;-49
2023/12/14 08:53:48;;;;;;;13.60;9.13;;;;;;;12.22;59.35;96864.19;10371230;28;20396;-49
2023/12/14 08:58:47;;;;;;;7.57;6.00;;;;;;;11.99;59.76;96869.88;10367466;28;20033;-49
2023/12/14 09:03:46;;;;;;;12.40;9.40;;;;;;;12.04;59.90;96857.63;10385994;28;20156;-49
2023/12/14 09:08:45;;;;;;;8.57;6.90;;;;;;;12.18;59.58;96870.34;10370801;28;20067;-50
2023/12/14 09:13:44;;;;;;;;;;;;;;;12.22;59.87;96872.84;10368971;28;20056;-49
2023/12/14 09:18:43;;;;;;;5.95;5.55;;;;;;;12.05;60.36;96872.34;10369819;28;19999;-52
2023/12/14 09:23:42;;;;;;;10.93;7.95;;;;;;;12.08;60.58;96875.72;10370637;28;20111;-50
2023/12/14 09:28:42;;;;;;;9.38;7.45;;;;;;;12.07;60.24;96853.22;10364841;28;20120;-50
2023/12/14 09:33:41;;;;;;;7.43;6.35;;;;;;;12.17;59.88;96842.63;10369735;28;20111;-50
2023/12/14 09:38:40;;;;;;;6.80;6.15;;;;;;;12.41;59.21;96875.06;10368817;28;20111;-50
2023/12/14 09:43:39;;;;;;;7.88;7.07;;;;;;;12.09;59.22;96841.06;10369665;28;20047;-52
2023/12/14 09:48:39;;;;;;;6.20;5.60;;;;;;;12.24;58.72;96852.84;10369559;28;20102;-52
2023/12/14 09:53:38;;;;;;;6.50;5.90;;;;;;;12.27;58.23;96852.84;10369256;28;20064;-52
2023/12/14 09:58:37;;;;;;;6.55;5.95;;;;;;;12.79;57.53;96878.53;10368509;28;20396;-49
2023/12/14 10:03:36;;;;;;;7.10;6.47;;;;;;;12.84;57.06;96881.91;10366907;28;20124;-51
2023/12/14 10:08:35;;;;;;;6.38;5.80;;;;;;;12.60;56.61;96808.72;10367107;28;20155;-50
2023/12/14 10:13:38;;;;;;;5.78;5.18;;;;;;;12.87;56.27;96853.19;10368513;28;20120;-50
2023/12/14 10:18:38;;;;;;;7.43;6.30;;;;;;;12.71;55.34;96861.34;10366568;28;20098;-49
2023/12/14 10:23:39;;;;;;;6.75;6.05;;;;;;;12.87;55.15;96874.00;10367339;28;21522;-50
2023/12/14 10:28:40;;;;;;;5.60;5.10;;;;;;;12.73;55.02;96869.97;10367413;28;20068;-50
2023/12/14 10:33:39;;;;;;;8.10;6.32;;;;;;;12.96;55.30;96871.19;10356443;28;20112;-51
2023/12/14 10:38:39;;;;;;;7.47;6.70;;;;;;;12.80;54.92;96859.44;10366658;28;20048;-50
2023/12/14 10:43:41;;;;;;;7.47;6.78;;;;;;;12.57;54.90;96847.81;10366397;28;20092;-53
2023/12/14 10:48:44;;;;;;;7.10;6.50;;;;;;;12.82;54.91;96894.09;10367163;28;20125;-49
2023/12/14 10:53:47;;;;;;;9.13;7.15;;;;;;;12.84;54.57;96897.53;10366660;28;20127;-52
2023/12/14 10:58:48;;;;;;;8.30;7.50;;;;;;;12.83;54.79;96883.63;10366396;28;20116;-52
2023/12/14 11:03:50;;;;;;;9.20;7.90;;;;;;;12.97;54.68;96898.91;10366399;28;20061;-51
2023/12/14 11:08:50;;;;;;;13.45;9.52;;;;;;;12.80;55.03;96901.94;10364674;28;20848;-50
2023/12/14 11:13:53;;;;;;;9.52;8.50;;;;;;;12.42;56.19;96884.59;10366420;28;20126;-49
2023/12/14 11:19:23;;;;;;;7.43;6.72;;;;;;;12.41;56.09;96927.09;10366726;28;20495;-50
2023/12/14 11:24:22;;;;;;;7.78;7.07;;;;;;;12.62;56.39;96911.00;10364727;28;20069;-50
2023/12/14 11:29:22;;;;;;;9.05;8.15;;;;;;;12.45;56.60;96894.94;10366236;28;20117;-50
2023/12/14 11:34:24;;;;;;;8.07;7.28;;;;;;;12.30;56.17;96876.16;10367213;28;20144;-50
2023/12/14 11:39:23;;;;;;;7.20;6.60;;;;;;;12.62;55.89;96924.03;10375323;28;20297;-50
2023/12/14 11:44:22;;;;;;;8.63;7.82;;;;;;;12.37;56.38;96908.13;10374423;28;20431;-52
2023/12/14 11:49:25;;;;;;;10.15;7.85;;;;;;;12.55;56.56;96895.56;10373072;28;20128;-49
2023/12/14 11:54:24;;;;;;;8.77;7.55;;;;;;;12.50;56.19;96849.69;10372187;28;20516;-52
2023/12/14 11:59:23;;;;;;;9.68;8.77;;;;;;;12.87;55.14;96874.00;10373976;28;20115;-50
2023/12/14 12:04:23;;;;;;;8.15;6.80;;;;;;;13.04;55.33;96902.22;10373502;28;20031;-50
2023/12/14 12:09:36;;;;;;;7.53;6.82;;;;;;;12.59;55.71;96860.78;10373689;28;20132;-52
2023/12/14 12:14:35;;;;;;;8.52;7.80;;;;;;;12.42;55.46;96846.41;10370577;28;20059;-50
2023/12/14 12:19:36;;;;;;;7.72;6.97;;;;;;;12.80;55.71;96914.94;10372700;28;20108;-50
2023/12/14 12:24:35;;;;;;;10.50;8.48;;;;;;;12.59;55.91;96882.47;10372783;28;20056;-50
2023/12/14 12:29:34;;;;;;;7.90;7.13;;;;;;;12.89;55.88;96926.91;10373060;28;20028;-50
2023/12/14 12:34:33;;;;;;;;;;;;;;;13.01;55.59;96905.78;10372817;28;20475;-50
2023/12/14 12:39:32;;;;;;;22.58;15.65;;;;;;;12.98;55.11;96890.22;10372309;28;19956;-51
2023/12/14 12:44:31;;;;;;;12.25;9.35;;;;;;;13.08;54.88;96877.81;10371701;28;20035;-51
2023/12/14 12:49:30;;;;;;;8.80;7.90;;;;;;;12.92;54.80;96838.28;10371914;28;20037;-52
2023/12/14 12:54:31;;;;;;;24.60;17.73;;;;;;;13.32;54.69;96889.38;10371827;28;20104;-50
2023/12/14 12:59:30;;;;;;;35.38;24.25;;;;;;;13.60;54.34;96919.97;10368364;28;20041;-52
2023/12/14 13:04:32;;;;;;;10.80;8.98;;;;;;;13.43;53.86;96895.16;10370560;28;20027;-49
2023/12/14 13:09:31;;;;;;;10.60;8.88;;;;;;;13.33;54.02;96865.03;10370961;28;20056;-51
2023/12/14 13:14:31;;;;;;;9.27;8.32;;;;;;;13.37;53.58;96877.06;10369876;28;20025;-52
2023/12/14 13:19:30;;;;;;;19.77;13.02;;;;;;;13.12;54.13;96867.28;10369916;28;20048;-50
2023/12/14 13:24:29;;;;;;;7.25;6.55;;;;;;;13.31;53.93;96908.53;10370579;28;20083;-51
2023/12/14 13:29:28;;;;;;;11.57;9.13;;;;;;;13.46;53.62;96910.72;10370387;28;20063;-52
2023/12/14 13:34:28;;;;;;;;;;;;;;;13.39;53.89;96919.59;10369204;28;20048;-50
2023/12/14 13:39:27;;;;;;;14.70;11.23;;;;;;;13.25;54.02;96927.75;10369256;28;20586;-51
2023/12/14 13:44:26;;;;;;;;;;;;;;;13.21;53.85;96944.38;10369615;28;20056;-50
2023/12/14 13:49:25;;;;;;;17.70;13.73;;;;;;;13.04;53.98;96902.22;10369805;28;19963;-50
2023/12/14 13:54:24;;;;;;;18.23;13.02;;;;;;;12.97;54.16;96948.41;10369453;28;20124;-51
2023/12/14 13:59:22;;;;;;;10.85;9.10;;;;;;;12.48;54.29;96926.09;10368562;28;20031;-51
2023/12/14 14:04:21;;;;;;;6.13;5.63;;;;;;;12.07;54.05;96907.00;10369349;28;20112;-50
2023/12/14 14:09:20;;;;;;;7.65;7.00;;;;;;;12.19;54.26;96947.50;10369154;28;20041;-52
2023/12/14 14:14:19;;;;;;;8.13;7.43;;;;;;;11.83;54.56;96900.50;10368636;28;20627;-52
2023/12/14 14:19:18;;;;;;;13.60;8.60;;;;;;;11.93;54.73;96933.25;10369146;28;20408;-50
2023/12/14 14:24:17;;;;;;;;;;;;;;;11.52;55.57;96963.47;10368622;28;20135;-50
2023/12/14 14:29:18;;;;;;;5.53;5.05;;;;;;;11.21;56.29;96908.59;10368213;28;19979;-50
2023/12/14 14:34:17;;;;;;;6.90;6.18;;;;;;;10.99;57.05;96906.38;10368309;28;20076;-50
2023/12/14 14:39:18;;;;;;;6.30;5.70;;;;;;;11.02;57.05;96900.25;10368180;28;20107;-50
2023/12/14 14:44:17;;;;;;;15.63;12.38;;;;;;;11.31;57.29;96948.25;10367756;28;20059;-52
2023/12/14 14:49:16;;;;;;;15.90;13.48;;;;;;;11.07;57.53;96924.41;10368227;28;20064;-50
2023/12/14 14:54:15;;;;;;;9.00;8.25;;;;;;;11.04;57.89;96940.03;10367011;28;20025;-51
2023/12/14 14:59:15;;;;;;;15.48;12.82;;;;;;;10.99;57.81;96927.13;10366275;28;20516;-50
2023/12/14 15:04:14;;;;;;;15.57;13.60;;;;;;;10.92;57.77;96916.88;10366780;28;20440;-51
2023/12/14 15:09:13;;;;;;;16.67;12.23;;;;;;;10.92;58.75;96986.97;10367505;28;20484;-53
2023/12/14 15:14:12;;;;;;;9.95;8.77;;;;;;;10.36;59.98;96961.72;10366574;28;20033;-51
2023/12/14 15:19:11;;;;;;;10.43;8.32;;;;;;;10.74;58.70;96957.75;10367664;28;20086;-50
2023/12/14 15:24:10;;;;;;;7.90;7.10;;;;;;;10.55;61.34;96953.72;10366686;28;20080;-50
2023/12/14 15:29:09;;;;;;;15.98;9.38;;;;;;;10.73;61.22;96970.75;10365034;28;20055;-50
2023/12/14 15:34:08;;;;;;;;;;;;;;;10.64;61.91;96970.91;10366755;28;20132;-51
2023/12/14 15:39:07;;;;;;;15.40;10.93;;;;;;;10.43;62.65;96962.53;10367369;28;19920;-50
2023/12/14 15:44:06;;;;;;;12.07;9.73;;;;;;;10.22;62.61;96955.03;10365868;28;20029;-51
2023/12/14 15:49:05;;;;;;;11.63;9.75;;;;;;;10.24;63.98;96982.63;10367068;28;20043;-50
2023/12/14 15:54:04;;;;;;;;;;;;;;;10.27;63.98;97005.09;10367012;28;20075;-50
2023/12/14 15:59:03;;;;;;;60.05;30.67;;;;;;;10.20;64.83;97009.47;10366626;28;19913;-49
2023/12/14 16:04:02;;;;;;;20.75;10.93;;;;;;;10.16;64.56;96977.53;10366199;28;20057;-50
2023/12/14 16:09:02;;;;;;;17.80;11.90;;;;;;;10.48;64.02;96996.19;10366335;28;20036;-50
2023/12/14 16:14:01;;;;;;;11.95;8.63;;;;;;;10.27;64.42;97011.13;10366084;28;20113;-50
2023/12/14 16:19:01;;;;;;;17.45;10.68;;;;;;;9.95;65.02;97019.25;10366337;28;20200;-49
2023/12/14 16:24:00;;;;;;;18.15;10.35;;;;;;;10.26;65.60;97057.78;10372101;28;20079;-50
2023/12/14 16:28:59;;;;;;;10.98;8.73;;;;;;;9.98;65.58;96975.16;10372963;28;20052;-50
2023/12/14 16:33:58;;;;;;;16.50;10.65;;;;;;;10.44;64.52;97026.47;10367204;28;20051;-50
2023/12/14 16:38:57;;;;;;;19.02;14.07;;;;;;;10.42;65.86;97028.22;10369661;28;20043;-50
2023/12/14 16:43:56;;;;;;;26.35;17.45;;;;;;;10.37;65.69;97055.94;10372138;28;20455;-51
2023/12/14 16:48:55;;;;;;;18.05;13.93;;;;;;;10.01;67.53;97047.69;10371778;28;20152;-50
2023/12/14 16:53:55;;;;;;;19.13;14.30;;;;;;;9.72;68.41;97022.94;10370956;28;20143;-50
2023/12/14 16:58:54;;;;;;;23.88;18.10;;;;;;;10.02;69.04;97075.31;10357424;28;20028;-50
2023/12/14 17:03:53;;;;;;;23.05;15.50;;;;;;;10.14;70.08;97095.09;10363142;28;20112;-51
2023/12/14 17:08:53;;;;;;;13.93;10.90;;;;;;;10.19;70.54;97093.31;10371515;28;20119;-50
2023/12/14 17:13:52;;;;;;;;;;;;;;;10.36;71.50;97129.47;10371769;28;20160;-50
2023/12/14 17:18:50;;;;;;;19.27;14.75;;;;;;;10.12;72.32;97135.72;10369156;28;19912;-50
2023/12/14 17:23:50;;;;;;;15.00;10.90;;;;;;;10.18;74.54;97206.53;10370439;28;20049;-50
2023/12/14 17:28:53;;;;;;;13.32;9.82;;;;;;;9.96;75.62;97184.25;10370863;28;20446;-50
2023/12/14 17:33:52;;;;;;;13.20;9.07;;;;;;;10.02;76.25;97175.56;10370200;28;20457;-50
2023/12/14 17:38:52;;;;;;;12.10;9.05;;;;;;;10.02;77.83;97181.59;10370635;28;20067;-50
2023/12/14 17:43:51;;;;;;;;;;;;;;;10.08;79.38;97189.34;10370476;28;20052;-49
2023/12/14 17:48:49;;;;;;;14.73;10.15;;;;;;;9.75;79.23;97149.84;10368381;28;19924;-50
2023/12/14 17:53:48;;;;;;;17.20;11.77;;;;;;;9.86;80.42;97167.03;10369522;28;20523;-50
2023/12/14 17:58:47;;;;;;;16.10;11.20;;;;;;;9.60;80.38;97137.00;10367852;28;20480;-50
2023/12/14 18:03:46;;;;;;;16.88;12.77;;;;;;;8.77;80.85;97000.34;10369117;28;20436;-50
2023/12/14 18:08:45;;;;;;;33.42;24.67;;;;;;;9.53;81.85;97172.44;10367865;28;20109;-50
2023/12/14 18:13:44;;;;;;;48.92;35.17;;;;;;;9.62;82.96;97186.22;10368753;28;20021;-50
2023/12/14 18:18:43;;;;;;;33.20;23.30;;;;;;;9.43;82.82;97180.28;10368059;28;20048;-49
2023/12/14 18:23:42;;;;;;;30.65;21.75;;;;;;;9.59;83.22;97206.97;10367969;28;20049;-52
2023/12/14 18:28:41;;;;;;;29.77;19.67;;;;;;;9.46;84.13;97203.56;10368313;28;20025;-50
2023/12/14 18:33:51;;;;;;;30.23;23.10;;;;;;;9.43;84.26;97188.06;10367516;28;20148;-50
2023/12/14 18:38:50;;;;;;;34.05;24.48;;;;;;;9.40;84.67;97217.44;10367462;28;20647;-50
2023/12/14 18:43:49;;;;;;;50.45;37.40;;;;;;;9.22;85.08;97176.06;10366953;28;20696;-50
2023/12/14 18:48:48;;;;;;;46.45;36.10;;;;;;;9.45;85.38;97225.19;10367305;28;20029;-49
2023/12/14 18:53:47;;;;;;;49.05;36.97;;;;;;;9.41;85.81;97211.38;10364686;28;20067;-50
2023/12/14 18:58:46;;;;;;;;;;;;;;;9.44;85.97;97236.38;10365222;28;20053;-50
2023/12/14 19:03:46;;;;;;;48.30;34.85;;;;;;;9.27;85.88;97203.63;10364555;28;19980;-52
2023/12/14 19:08:45;;;;;;;50.05;37.65;;;;;;;9.31;86.55;97207.13;10364388;28;20057;-52
2023/12/14 19:13:44;;;;;;;53.60;37.78;;;;;;;9.43;86.51;97208.78;10364841;28;20029;-52
2023/12/14 19:18:43;;;;;;;;;;;;;;;9.55;86.58;97222.50;10364499;28;20064;-50
2023/12/14 19:23:41;;;;;;;31.65;24.15;;;;;;;9.05;86.62;97168.38;10363390;28;20006;-49
2023/12/14 19:28:41;;;;;;;38.05;28.15;;;;;;;9.18;87.36;97208.84;10363519;28;20119;-50
2023/12/14 19:33:40;;;;;;;34.55;26.63;;;;;;;8.76;88.29;97158.13;10363240;28;20132;-49
2023/12/14 19:38:52;;;;;;;29.25;21.60;;;;;;;9.14;88.09;97238.22;10364575;28;20087;-50
2023/12/14 19:43:51;;;;;;;35.53;24.08;;;;;;;8.86;89.44;97215.03;10366188;28;20851;-50
2023/12/14 19:48:50;;;;;;;32.78;24.45;;;;;;;9.01;89.07;97268.44;10366132;28;20762;-50
2023/12/14 19:53:49;;;;;;;36.88;27.98;;;;;;;8.84;89.06;97247.78;10366163;28;20793;-51
2023/12/14 19:58:48;;;;;;;36.10;28.38;;;;;;;8.99;89.45;97270.16;10372723;28;20112;-52
2023/12/14 20:03:47;;;;;;;39.10;30.05;;;;;;;8.83;88.94;97253.84;10373844;28;20504;-52
2023/12/14 20:08:46;;;;;;;39.22;30.25;;;;;;;8.64;88.80;97228.84;10373823;28;20024;-50
2023/12/14 20:13:45;;;;;;;45.85;32.30;;;;;;;9.08;89.48;97290.84;10373665;28;20029;-51
2023/12/14 20:18:44;;;;;;;44.58;33.22;;;;;;;9.15;89.38;97302.06;10372723;28;20141;-49
2023/12/14 20:23:43;;;;;;;44.45;32.88;;;;;;;9.24;89.71;97319.31;10373216;28;20091;-50
2023/12/14 20:28:42;;;;;;;;;;;;;;;9.35;89.78;97346.94;10373843;28;20069;-50
2023/12/14 20:33:42;;;;;;;47.03;35.28;;;;;;;9.07;89.44;97296.06;10371901;28;20009;-51
2023/12/14 20:38:43;;;;;;;44.28;32.90;;;;;;;9.02;90.87;97303.84;10372385;28;20060;-50
2023/12/14 20:43:42;;;;;;;59.78;41.22;;;;;;;8.90;91.39;97312.47;10371169;28;20822;-50
2023/12/14 20:48:41;;;;;;;60.08;42.00;;;;;;;8.83;91.71;97295.25;10372209;28;20488;-50
2023/12/14 20:53:39;;;;;;;80.80;56.63;;;;;;;8.83;91.93;97302.13;10371054;28;20751;-51
2023/12/14 20:58:38;;;;;;;104.95;75.22;;;;;;;8.82;91.78;97316.78;10370512;28;20632;-49
2023/12/14 21:03:39;;;;;;;82.00;58.25;;;;;;;9.03;92.17;97338.34;10371420;28;20036;-49
2023/12/14 21:08:38;;;;;;;47.80;35.80;;;;;;;8.61;92.02;97283.19;10371253;28;20056;-50
2023/12/14 21:13:37;;;;;;;34.15;23.77;;;;;;;8.84;92.33;97312.47;10371308;28;20025;-49
2023/12/14 21:18:36;;;;;;;29.10;21.45;;;;;;;8.71;91.99;97300.41;10371496;28;20080;-49
2023/12/14 21:23:35;;;;;;;36.30;26.42;;;;;;;8.88;91.72;97337.50;10370730;28;20076;-51
2023/12/14 21:28:35;;;;;;;41.78;29.70;;;;;;;9.01;91.89;97377.16;10370844;28;20132;-50
2023/12/14 21:33:34;;;;;;;35.35;24.63;;;;;;;8.73;91.86;97324.56;10370276;28;20125;-50
2023/12/14 21:38:33;;;;;;;46.20;32.58;;;;;;;8.81;91.64;97369.41;10368615;28;20055;-49
2023/12/14 21:43:31;;;;;;;59.70;39.15;;;;;;;8.71;91.86;97358.19;10370109;28;20127;-49
2023/12/14 21:48:30;;;;;;;56.15;39.50;;;;;;;7.76;91.58;97209.94;10365675;28;20033;-49
2023/12/14 21:53:29;;;;;;;58.25;41.95;;;;;;;8.76;92.10;97393.53;10369682;28;20563;-50
2023/12/14 21:58:28;;;;;;;50.55;35.90;;;;;;;8.64;92.50;97373.69;10369360;28;20675;-50
2023/12/14 22:03:27;;;;;;;54.22;39.70;;;;;;;8.68;92.66;97393.53;10369915;28;20791;-49
2023/12/14 22:08:26;;;;;;;52.67;37.63;;;;;;;8.80;92.38;97410.78;10369405;28;20021;-50
2023/12/14 22:13:25;;;;;;;48.08;33.17;;;;;;;8.06;93.20;97353.78;10366820;28;20037;-49
2023/12/14 22:18:24;;;;;;;58.95;37.17;;;;;;;8.56;93.97;97435.78;10368221;28;20120;-51
2023/12/14 22:23:23;;;;;;;47.55;30.83;;;;;;;8.17;93.71;97359.84;10368243;28;20129;-50
2023/12/14 22:28:22;;;;;;;38.03;25.15;;;;;;;8.49;94.05;97398.69;10368846;28;20496;-50
2023/12/14 22:33:21;;;;;;;62.25;35.17;;;;;;;8.39;93.85;97430.56;10368278;28;20131;-49
2023/12/14 22:38:21;;;;;;;45.80;27.05;;;;;;;7.94;94.22;97392.50;10368490;28;20152;-51
2023/12/14 22:43:21;;;;;;;37.03;23.95;;;;;;;8.02;95.25;97448.53;10366682;28;20084;-49
2023/12/14 22:48:19;;;;;;;36.08;21.92;;;;;;;7.72;96.02;97413.09;10367230;28;20432;-49
2023/12/14 22:53:18;;;;;;;43.58;24.65;;;;;;;7.78;97.38;97508.72;10397273;28;20485;-49
2023/12/14 22:58:17;;;;;;;33.22;22.30;;;;;;;6.76;97.35;97321.31;10367911;28;20059;-49
2023/12/14 23:03:16;;;;;;;29.88;19.42;;;;;;;7.72;98.04;97462.16;10367435;28;20120;-49
2023/12/14 23:08:15;;;;;;;39.08;24.98;;;;;;;7.62;98.23;97457.81;10367766;28;20047;-49